createdAt,value
2019-04-22T00:01:31.263Z,9.77
2019-04-22T00:03:38.768Z,8.70
2019-04-22T00:06:00.011Z,8.07
2019-04-22T00:08:09.008Z,8.07
2019-04-22T00:10:21.186Z,8.30
2019-04-22T00:12:19.528Z,8.13
2019-04-22T00:14:24.565Z,6.73
2019-04-22T00:16:39.620Z,7.23
2019-04-22T00:18:56.372Z,6.47
2019-04-22T00:20:44.022Z,5.10
2019-04-22T00:22:44.907Z,5.90
2019-04-22T00:25:01.138Z,5.90
2019-04-22T00:27:03.934Z,5.97
2019-04-22T00:29:35.702Z,6.20
2019-04-22T00:31:25.157Z,5.63
2019-04-22T00:33:26.666Z,5.40
2019-04-22T00:35:31.836Z,6.00
2019-04-22T00:37:43.836Z,5.30
2019-04-22T00:39:46.648Z,5.60
2019-04-22T00:41:50.535Z,5.47
2019-04-22T00:44:04.738Z,5.40
2019-04-22T00:46:09.702Z,6.33
2019-04-22T00:48:09.149Z,7.17
2019-04-22T00:52:18.242Z,5.70
2019-04-22T00:54:21.502Z,6.37
2019-04-22T00:56:27.735Z,6.63
2019-04-22T00:58:39.485Z,5.70
2019-04-22T01:00:44.343Z,6.60
2019-04-22T01:02:49.620Z,7.03
2019-04-22T01:04:54.969Z,8.73
2019-04-22T01:07:00.309Z,10.13
2019-04-22T01:09:04.401Z,9.87
2019-04-22T01:11:13.563Z,8.40
2019-04-22T01:13:15.855Z,7.07
2019-04-22T01:15:23.346Z,7.23
2019-04-22T01:17:27.146Z,7.73
2019-04-22T01:19:36.687Z,8.23
2019-04-22T01:21:40.282Z,8.03
2019-04-22T01:23:29.857Z,7.70
2019-04-22T01:25:42.129Z,7.90
2019-04-22T01:27:46.071Z,7.80
2019-04-22T01:29:46.783Z,6.93
2019-04-22T01:31:43.443Z,7.10
2019-04-22T01:34:00.479Z,7.10
2019-04-22T01:36:15.657Z,7.20
2019-04-22T01:38:14.894Z,7.00
2019-04-22T01:40:31.555Z,5.70
2019-04-22T01:42:43.259Z,7.00
2019-04-22T01:44:42.181Z,6.20
2019-04-22T01:48:57.679Z,6.97
2019-04-22T01:50:54.916Z,6.17
2019-04-22T01:53:06.460Z,6.40
2019-04-22T01:55:17.489Z,6.60
2019-04-22T01:57:09.893Z,6.60
2019-04-22T01:59:12.512Z,5.70
2019-04-22T02:01:32.441Z,6.33
2019-04-22T02:03:34.709Z,6.30
2019-04-22T02:05:40.242Z,6.03
2019-04-22T02:07:42.465Z,6.13
2019-04-22T02:09:53.698Z,6.67
2019-04-22T02:11:57.202Z,5.83
2019-04-22T02:13:56.349Z,6.63
2019-04-22T02:16:06.330Z,6.03
2019-04-22T02:18:18.301Z,5.37
2019-04-22T02:20:23.368Z,6.23
2019-04-22T02:22:38.486Z,5.50
2019-04-22T02:24:28.306Z,6.40
2019-04-22T02:28:45.865Z,6.70
2019-04-22T02:31:01.879Z,6.20
2019-04-22T02:33:14.592Z,5.43
2019-04-22T02:37:02.852Z,5.67
2019-04-22T02:43:34.252Z,5.03
2019-04-22T02:45:26.400Z,5.73
2019-04-22T02:47:47.561Z,6.07
2019-04-22T02:51:40.878Z,6.00
2019-04-22T02:56:08.201Z,5.93
2019-04-22T02:57:57.954Z,6.27
2019-04-22T03:00:15.377Z,6.67
2019-04-22T03:02:15.077Z,5.43
2019-04-22T03:04:20.603Z,5.63
2019-04-22T03:10:40.050Z,6.10
2019-04-22T03:14:42.922Z,6.97
2019-04-22T03:16:48.845Z,5.77
2019-04-22T03:19:05.898Z,6.63
2019-04-22T03:21:07.750Z,5.70
2019-04-22T03:23:16.930Z,6.70
2019-04-22T03:25:43.456Z,6.13
2019-04-22T03:27:25.476Z,5.60
2019-04-22T03:29:18.210Z,5.57
2019-04-22T03:32:01.956Z,6.57
2019-04-22T03:33:44.260Z,6.70
2019-04-22T03:42:07.097Z,6.20
2019-04-22T03:44:21.444Z,5.70
2019-04-22T03:46:14.765Z,6.17
2019-04-22T03:52:20.527Z,6.10
2019-04-22T03:54:39.516Z,6.50
2019-04-22T03:58:52.765Z,5.70
2019-04-22T04:00:55.831Z,6.87
2019-04-22T04:07:32.355Z,6.07
2019-04-22T04:09:19.497Z,5.60
2019-04-22T04:11:25.184Z,6.53
2019-04-22T04:17:41.307Z,5.97
2019-04-22T04:20:05.687Z,5.50
2019-04-22T04:21:53.428Z,6.23
2019-04-22T04:24:19.877Z,6.17
2019-04-22T04:25:52.638Z,6.60
2019-04-22T04:30:30.239Z,6.30
2019-04-22T04:36:37.130Z,6.60
2019-04-22T04:38:36.371Z,6.10
2019-04-22T04:42:46.047Z,5.60
2019-04-22T04:46:59.364Z,5.87
2019-04-22T04:49:14.075Z,6.30
2019-04-22T04:51:16.547Z,6.10
2019-04-22T04:57:33.771Z,6.10
2019-04-22T05:00:11.111Z,5.63
2019-04-22T05:03:54.322Z,6.13
2019-04-22T05:05:47.765Z,5.43
2019-04-22T05:07:56.031Z,5.73
2019-04-22T05:10:00.657Z,5.70
2019-04-22T05:14:09.256Z,5.27
2019-04-22T05:16:34.488Z,5.40
2019-04-22T05:18:20.717Z,5.83
2019-04-22T05:26:39.793Z,6.67
2019-04-22T05:28:48.091Z,6.77
2019-04-22T05:30:47.334Z,7.23
2019-04-22T05:32:54.182Z,6.70
2019-04-22T05:35:00.595Z,6.67
2019-04-22T05:37:08.961Z,7.27
2019-04-22T05:39:12.427Z,7.20
2019-04-22T05:41:15.933Z,7.70
2019-04-22T05:43:21.558Z,8.30
2019-04-22T05:45:28.216Z,7.13
2019-04-22T05:47:32.481Z,7.17
2019-04-22T05:49:35.103Z,7.33
2019-04-22T05:51:42.351Z,6.90
2019-04-22T05:53:47.761Z,7.10
2019-04-22T05:55:57.135Z,7.67
2019-04-22T05:58:02.801Z,7.63
2019-04-22T06:00:06.419Z,7.83
2019-04-22T06:02:23.520Z,7.97
2019-04-22T06:04:19.799Z,7.00
2019-04-22T06:06:23.831Z,6.73
2019-04-22T06:08:29.195Z,7.23
2019-04-22T06:10:39.429Z,7.23
2019-04-22T06:12:40.181Z,8.13
2019-04-22T06:14:54.340Z,7.77
2019-04-22T06:19:07.425Z,6.90
2019-04-22T06:21:11.150Z,7.00
2019-04-22T06:23:20.002Z,6.63
2019-04-22T06:25:27.678Z,7.40
2019-04-22T06:27:28.792Z,6.40
2019-04-22T06:29:30.145Z,6.00
2019-04-22T06:31:54.441Z,6.90
2019-04-22T06:33:53.201Z,7.17
2019-04-22T06:35:50.417Z,7.13
2019-04-22T06:39:58.801Z,7.20
2019-04-22T06:42:08.920Z,6.93
2019-04-22T06:46:25.686Z,6.90
2019-04-22T06:48:27.953Z,6.30
2019-04-22T06:50:30.850Z,6.10
2019-04-22T06:52:29.432Z,5.83
2019-04-22T06:54:40.663Z,6.80
2019-04-22T06:56:48.531Z,6.50
2019-04-22T06:58:52.394Z,6.90
2019-04-22T07:01:04.227Z,6.90
2019-04-22T07:05:31.033Z,7.10
2019-04-22T07:07:22.110Z,6.00
2019-04-22T07:09:28.512Z,5.90
2019-04-22T07:11:26.601Z,5.50
2019-04-22T07:13:37.439Z,5.80
2019-04-22T07:17:50.538Z,6.47
2019-04-22T07:20:05.577Z,6.00
2019-04-22T07:22:00.447Z,5.83
2019-04-22T07:24:27.787Z,6.00
2019-04-22T07:26:05.988Z,5.53
2019-04-22T07:28:14.268Z,5.53
2019-04-22T07:32:25.348Z,6.47
2019-04-22T07:36:54.645Z,6.87
2019-04-22T07:40:50.570Z,6.07
2019-04-22T07:42:49.448Z,7.10
2019-04-22T07:44:54.824Z,5.70
2019-04-22T07:47:08.386Z,5.77
2019-04-22T07:49:10.647Z,6.20
2019-04-22T07:51:15.495Z,5.60
2019-04-22T07:53:19.255Z,5.43
2019-04-22T07:55:24.420Z,5.63
2019-04-22T07:59:35.268Z,5.00
2019-04-22T08:01:38.029Z,5.60
2019-04-22T08:03:59.861Z,4.83
2019-04-22T08:05:58.843Z,4.70
2019-04-22T08:07:59.479Z,5.83
2019-04-22T08:10:12.510Z,5.20
2019-04-22T08:12:02.950Z,5.40
2019-04-22T08:14:14.418Z,5.77
2019-04-22T08:16:17.186Z,5.03
2019-04-22T08:18:28.841Z,5.13
2019-04-22T08:20:36.922Z,5.13
2019-04-22T08:22:45.115Z,4.37
2019-04-22T08:24:58.572Z,4.20
2019-04-22T08:26:59.324Z,5.03
2019-04-22T08:29:09.418Z,5.20
2019-04-22T08:31:20.447Z,5.00
2019-04-22T08:33:34.839Z,5.27
2019-04-22T08:35:55.161Z,5.00
2019-04-22T08:40:09.589Z,4.20
2019-04-22T08:41:43.812Z,5.00
2019-04-22T08:44:11.195Z,5.10
2019-04-22T08:46:15.202Z,4.10
2019-04-22T08:48:12.984Z,5.07
2019-04-22T08:50:14.092Z,4.40
2019-04-22T08:52:20.780Z,4.40
2019-04-22T08:54:25.919Z,4.50
2019-04-22T08:58:40.145Z,4.63
2019-04-22T09:00:51.818Z,4.50
2019-04-22T09:02:54.035Z,4.40
2019-04-22T09:04:56.954Z,4.83
2019-04-22T09:07:21.161Z,4.60
2019-04-22T09:09:06.537Z,5.03
2019-04-22T09:11:13.210Z,4.10
2019-04-22T09:13:24.177Z,4.33
2019-04-22T09:15:26.090Z,4.50
2019-04-22T09:17:28.355Z,5.03
2019-04-22T09:19:28.500Z,3.87
2019-04-22T09:21:45.616Z,4.57
2019-04-22T09:23:56.857Z,4.67
2019-04-22T09:26:24.001Z,3.43
2019-04-22T09:28:24.469Z,4.40
2019-04-22T09:30:37.405Z,4.00
2019-04-22T09:32:38.796Z,4.20
2019-04-22T09:34:47.389Z,4.17
2019-04-22T09:36:52.260Z,3.53
2019-04-22T09:39:10.626Z,4.07
2019-04-22T09:41:02.026Z,4.77
2019-04-22T09:43:04.977Z,4.53
2019-04-22T09:47:16.519Z,5.07
2019-04-22T09:51:29.141Z,4.53
2019-04-22T09:53:39.211Z,4.90
2019-04-22T09:55:34.493Z,3.80
2019-04-22T09:57:52.073Z,5.00
2019-04-22T09:59:51.170Z,4.93
2019-04-22T10:02:10.236Z,4.20
2019-04-22T10:04:01.016Z,4.40
2019-04-22T10:06:16.671Z,4.37
2019-04-22T10:08:21.753Z,4.40
2019-04-22T10:10:15.282Z,3.90
2019-04-22T10:12:30.476Z,4.73
2019-04-22T10:14:30.880Z,4.37
2019-04-22T10:18:43.509Z,4.00
2019-04-22T10:20:51.881Z,4.60
2019-04-22T10:23:06.256Z,4.40
2019-04-22T10:24:56.923Z,4.30
2019-04-22T10:26:56.370Z,4.67
2019-04-22T10:31:12.273Z,4.90
2019-04-22T10:33:13.227Z,4.50
2019-04-22T10:35:15.518Z,4.70
2019-04-22T10:37:18.852Z,4.70
2019-04-22T10:39:33.770Z,5.53
2019-04-22T10:41:28.461Z,4.37
2019-04-22T10:43:43.239Z,5.03
2019-04-22T10:45:46.198Z,4.77
2019-04-22T10:47:52.329Z,4.93
2019-04-22T10:50:04.869Z,4.70
2019-04-22T10:52:08.789Z,3.77
2019-04-22T10:54:13.580Z,5.40
2019-04-22T10:56:18.818Z,4.73
2019-04-22T10:58:23.009Z,4.30
2019-04-22T11:00:27.403Z,4.67
2019-04-22T11:02:31.719Z,4.50
2019-04-22T11:04:36.425Z,4.30
2019-04-22T11:06:50.865Z,4.60
2019-04-22T11:08:52.821Z,4.33
2019-04-22T11:11:08.209Z,4.17
2019-04-22T11:12:58.991Z,4.30
2019-04-22T11:15:03.488Z,4.40
2019-04-22T11:17:08.883Z,4.00
2019-04-22T11:19:13.951Z,3.97
2019-04-22T11:21:19.988Z,3.90
2019-04-22T11:23:24.683Z,4.33
2019-04-22T11:25:29.842Z,4.90
2019-04-22T11:27:34.950Z,4.57
2019-04-22T11:29:39.365Z,4.23
2019-04-22T11:31:44.370Z,3.83
2019-04-22T11:33:48.438Z,4.47
2019-04-22T11:35:52.251Z,4.37
2019-04-22T11:37:56.828Z,4.23
2019-04-22T11:40:14.829Z,4.57
2019-04-22T11:42:09.910Z,4.90
2019-04-22T11:44:15.074Z,4.50
2019-04-22T11:46:21.069Z,4.30
2019-04-22T11:48:25.016Z,3.97
2019-04-22T11:50:30.196Z,4.47
2019-04-22T11:52:35.064Z,4.37
2019-04-22T11:54:44.306Z,4.00
2019-04-22T11:56:49.496Z,4.60
2019-04-22T11:58:54.980Z,3.90
2019-04-22T12:00:59.279Z,4.10
2019-04-22T12:03:03.235Z,4.07
2019-04-22T12:05:09.990Z,4.13
2019-04-22T12:07:15.034Z,4.70
2019-04-22T12:09:43.648Z,4.47
2019-04-22T12:12:14.109Z,4.60
2019-04-22T12:14:18.430Z,4.00
2019-04-22T12:16:23.312Z,3.33
2019-04-22T12:18:29.014Z,3.80
2019-04-22T12:20:33.110Z,3.70
2019-04-22T12:22:38.912Z,3.37
2019-04-22T12:24:43.196Z,3.17
2019-04-22T12:26:48.335Z,3.70
2019-04-22T12:28:53.249Z,3.60
2019-04-22T12:30:57.363Z,4.20
2019-04-22T12:33:02.478Z,3.93
2019-04-22T12:35:07.359Z,3.50
2019-04-22T12:37:17.405Z,4.23
2019-04-22T12:39:39.143Z,3.90
2019-04-22T12:42:09.137Z,3.83
2019-04-22T12:44:37.394Z,4.00
2019-04-22T12:46:39.031Z,4.60
2019-04-22T12:48:43.399Z,3.60
2019-04-22T12:50:50.024Z,3.97
2019-04-22T12:52:57.699Z,3.70
2019-04-22T12:54:58.474Z,4.10
2019-04-22T12:57:03.805Z,3.90
2019-04-22T12:59:10.080Z,3.73
2019-04-22T13:01:37.260Z,4.33
2019-04-22T13:03:42.623Z,3.20
2019-04-22T13:05:47.036Z,3.80
2019-04-22T13:07:51.729Z,3.70
2019-04-22T13:09:57.005Z,3.50
2019-04-22T13:12:01.244Z,3.57
2019-04-22T13:14:05.456Z,3.37
2019-04-22T13:16:09.195Z,3.47
2019-04-22T13:18:22.870Z,3.83
2019-04-22T13:20:20.626Z,3.47
2019-04-22T13:22:25.059Z,3.40
2019-04-22T13:24:30.049Z,3.60
2019-04-22T13:26:33.911Z,3.60
2019-04-22T13:28:38.868Z,3.80
2019-04-22T13:30:44.306Z,4.10
2019-04-22T13:32:49.132Z,3.90
2019-04-22T13:34:57.199Z,3.57
2019-04-22T13:36:59.007Z,3.40
2019-04-22T13:39:03.027Z,3.93
2019-04-22T13:41:20.423Z,3.23
2019-04-22T13:43:13.197Z,3.60
2019-04-22T13:45:17.869Z,3.67
2019-04-22T13:47:39.108Z,3.30
2019-04-22T13:50:01.113Z,3.30
2019-04-22T13:52:09.029Z,3.33
2019-04-22T13:56:05.547Z,3.00
2019-04-22T13:58:02.604Z,3.50
2019-04-22T13:59:58.133Z,3.53
2019-04-22T14:02:18.885Z,3.73
2019-04-22T14:04:26.759Z,4.47
2019-04-22T14:06:31.090Z,4.23
2019-04-22T14:08:35.378Z,3.53
2019-04-22T14:10:40.479Z,3.43
2019-04-22T14:12:44.618Z,3.17
2019-04-22T14:14:50.460Z,3.77
2019-04-22T14:16:55.100Z,3.20
2019-04-22T14:19:00.220Z,3.20
2019-04-22T14:21:05.095Z,3.17
2019-04-22T14:23:10.237Z,3.50
2019-04-22T14:25:14.679Z,3.67
2019-04-22T14:27:31.783Z,3.13
2019-04-22T14:29:23.984Z,4.10
2019-04-22T14:31:28.693Z,3.57
2019-04-22T14:33:32.535Z,3.53
2019-04-22T14:35:38.101Z,3.00
2019-04-22T14:37:42.442Z,3.10
2019-04-22T14:39:46.305Z,3.30
2019-04-22T14:42:12.407Z,3.33
2019-04-22T14:44:59.388Z,2.83
2019-04-22T14:46:30.308Z,2.87
2019-04-22T14:48:36.257Z,3.30
2019-04-22T14:50:37.594Z,3.47
2019-04-22T14:52:44.546Z,3.73
2019-04-22T14:54:37.731Z,4.27
2019-04-22T14:56:31.029Z,3.30
2019-04-22T14:58:35.096Z,3.07
2019-04-22T15:00:40.039Z,3.50
2019-04-22T15:02:43.929Z,3.40
2019-04-22T15:04:48.047Z,4.30
2019-04-22T15:06:52.826Z,3.43
2019-04-22T15:08:59.011Z,3.47
2019-04-22T15:11:02.201Z,3.37
2019-04-22T15:13:07.377Z,3.37
2019-04-22T15:15:13.483Z,3.40
2019-04-22T15:17:24.946Z,3.83
2019-04-22T15:19:38.014Z,3.57
2019-04-22T15:21:43.024Z,3.40
2019-04-22T15:23:46.832Z,3.10
2019-04-22T15:25:50.806Z,3.27
2019-04-22T15:27:55.311Z,3.83
2019-04-22T15:29:59.281Z,3.47
2019-04-22T15:32:03.334Z,3.80
2019-04-22T15:34:07.161Z,4.07
2019-04-22T15:36:12.053Z,3.03
2019-04-22T15:38:17.282Z,3.17
2019-04-22T15:40:22.568Z,3.30
2019-04-22T15:42:30.760Z,3.20
2019-04-22T15:44:33.701Z,4.10
2019-04-22T15:46:37.402Z,3.20
2019-04-22T15:48:42.134Z,3.70
2019-04-22T15:50:46.708Z,2.80
2019-04-22T15:52:53.802Z,3.40
2019-04-22T15:55:36.843Z,3.27
2019-04-22T15:57:37.633Z,3.03
2019-04-22T15:59:57.758Z,3.03
2019-04-22T16:01:48.614Z,3.00
2019-04-22T16:03:54.524Z,2.87
2019-04-22T16:05:59.691Z,3.00
2019-04-22T16:08:06.548Z,2.77
2019-04-22T16:10:15.963Z,2.90
2019-04-22T16:12:30.778Z,3.10
2019-04-22T16:14:35.142Z,2.40
2019-04-22T16:16:36.876Z,2.90
2019-04-22T16:18:46.386Z,2.70
2019-04-22T16:20:52.288Z,2.80
2019-04-22T16:23:09.819Z,2.37
2019-04-22T16:25:19.386Z,2.90
2019-04-22T16:27:26.573Z,2.90
2019-04-22T16:29:31.528Z,2.40
2019-04-22T16:31:39.634Z,2.77
2019-04-22T16:33:47.369Z,2.60
2019-04-22T16:35:52.924Z,2.67
2019-04-22T16:37:58.985Z,3.10
2019-04-22T16:40:09.333Z,2.60
2019-04-22T16:42:27.822Z,2.40
2019-04-22T16:44:26.878Z,2.70
2019-04-22T16:46:33.826Z,3.13
2019-04-22T16:48:45.444Z,2.50
2019-04-22T16:50:58.426Z,3.27
2019-04-22T16:53:13.800Z,2.47
2019-04-22T16:55:18.874Z,3.40
2019-04-22T16:57:23.878Z,3.13
2019-04-22T16:59:28.696Z,2.50
2019-04-22T17:01:46.241Z,3.10
2019-04-22T17:04:02.738Z,2.90
2019-04-22T17:06:19.293Z,2.70
2019-04-22T17:08:24.545Z,2.93
2019-04-22T17:10:28.813Z,2.93
2019-04-22T17:12:45.874Z,3.43
2019-04-22T17:15:02.281Z,3.47
2019-04-22T17:17:04.326Z,3.53
2019-04-22T17:19:09.020Z,3.10
2019-04-22T17:21:14.505Z,3.07
2019-04-22T17:23:19.895Z,3.07
2019-04-22T17:25:24.594Z,2.57
2019-04-22T17:27:30.949Z,2.97
2019-04-22T17:29:34.749Z,2.63
2019-04-22T17:31:40.905Z,2.17
2019-04-22T17:33:44.656Z,2.70
2019-04-22T17:35:50.295Z,3.67
2019-04-22T17:38:01.779Z,4.03
2019-04-22T17:40:15.908Z,3.40
2019-04-22T17:42:25.376Z,2.87
2019-04-22T17:44:41.430Z,2.43
2019-04-22T17:46:35.966Z,3.27
2019-04-22T17:48:53.085Z,2.67
2019-04-22T17:51:07.600Z,3.10
2019-04-22T17:53:16.533Z,2.50
2019-04-22T17:55:04.839Z,2.60
2019-04-22T17:57:21.186Z,2.50
2019-04-22T17:59:23.360Z,3.70
2019-04-22T18:01:29.703Z,3.07
2019-04-22T18:03:24.513Z,3.40
2019-04-22T18:05:32.032Z,3.10
2019-04-22T18:07:43.044Z,2.93
2019-04-22T18:10:16.125Z,2.67
2019-04-22T18:12:07.408Z,2.40
2019-04-22T18:14:28.048Z,2.30
2019-04-22T18:16:14.520Z,2.90
2019-04-22T18:18:19.018Z,2.60
2019-04-22T18:20:20.883Z,2.50
2019-04-22T18:22:21.794Z,2.70
2019-04-22T18:24:25.696Z,3.00
2019-04-22T18:26:40.208Z,2.70
2019-04-22T18:28:55.878Z,2.20
2019-04-22T18:30:58.708Z,2.80
2019-04-22T18:33:07.142Z,2.93
2019-04-22T18:35:10.438Z,2.17
2019-04-22T18:37:15.682Z,2.70
2019-04-22T18:39:22.364Z,3.13
2019-04-22T18:41:23.716Z,2.50
2019-04-22T18:43:33.960Z,3.10
2019-04-22T18:47:44.274Z,3.00
2019-04-22T18:49:46.189Z,2.40
2019-04-22T18:52:18.274Z,3.07
2019-04-22T18:54:32.206Z,2.50
2019-04-22T18:56:38.779Z,2.70
2019-04-22T18:58:36.695Z,2.67
2019-04-22T19:00:37.011Z,2.80
2019-04-22T19:02:51.960Z,3.27
2019-04-22T19:05:00.003Z,3.13
2019-04-22T19:07:20.298Z,2.67
2019-04-22T19:09:22.148Z,3.30
2019-04-22T19:11:24.164Z,3.57
2019-04-22T19:15:36.872Z,3.00
2019-04-22T19:17:55.162Z,2.80
2019-04-22T19:19:57.894Z,2.57
2019-04-22T19:21:56.075Z,3.00
2019-04-22T19:23:59.981Z,2.50
2019-04-22T19:26:06.106Z,2.80
2019-04-22T19:28:17.835Z,3.27
2019-04-22T19:30:16.449Z,3.30
2019-04-22T19:32:21.422Z,2.83
2019-04-22T19:34:30.032Z,3.03
2019-04-22T19:36:32.249Z,2.50
2019-04-22T19:38:28.616Z,3.03
2019-04-22T19:40:58.145Z,3.50
2019-04-22T19:42:58.028Z,3.00
2019-04-22T19:44:55.090Z,3.00
2019-04-22T19:47:22.563Z,3.00
2019-04-22T19:49:18.384Z,2.80
2019-04-22T19:51:15.757Z,2.90
2019-04-22T19:53:27.750Z,3.20
2019-04-22T19:55:32.695Z,3.00
2019-04-22T19:57:34.542Z,2.97
2019-04-22T19:59:39.782Z,2.63
2019-04-22T20:02:00.619Z,2.70
2019-04-22T20:04:15.080Z,2.80
2019-04-22T20:06:39.599Z,2.77
2019-04-22T20:08:45.962Z,2.80
2019-04-22T20:10:48.020Z,2.80
2019-04-22T20:12:55.836Z,2.83
2019-04-22T20:15:00.703Z,2.73
2019-04-22T20:17:00.807Z,2.90
2019-04-22T20:19:19.337Z,3.37
2019-04-22T20:21:22.274Z,3.07
2019-04-22T20:23:19.649Z,2.80
2019-04-22T20:25:20.860Z,2.67
2019-04-22T20:27:36.390Z,2.70
2019-04-22T20:29:48.138Z,2.93
2019-04-22T20:31:49.588Z,2.90
2019-04-22T20:33:56.024Z,2.53
2019-04-22T20:35:56.788Z,3.13
2019-04-22T20:38:09.315Z,3.23
2019-04-22T20:40:12.841Z,3.43
2019-04-22T20:42:33.704Z,3.03
2019-04-22T20:44:22.533Z,3.50
2019-04-22T20:46:24.264Z,3.47
2019-04-22T20:48:40.454Z,2.90
2019-04-22T20:50:44.454Z,2.97
2019-04-22T20:53:07.229Z,3.60
2019-04-22T20:54:43.516Z,3.40
2019-04-22T20:56:53.337Z,3.50
2019-04-22T20:59:02.115Z,2.93
2019-04-22T21:00:57.328Z,2.80
2019-04-22T21:03:00.977Z,3.13
2019-04-22T21:05:03.247Z,2.93
2019-04-22T21:07:16.752Z,2.80
2019-04-22T21:09:31.733Z,2.43
2019-04-22T21:11:29.599Z,2.43
2019-04-22T21:13:31.936Z,2.70
2019-04-22T21:15:49.378Z,2.80
2019-04-22T21:17:53.802Z,2.77
2019-04-22T21:20:00.172Z,2.30
2019-04-22T21:22:03.688Z,2.87
2019-04-22T21:24:02.184Z,2.80
2019-04-22T21:26:13.552Z,2.70
2019-04-22T21:28:21.395Z,2.80
2019-04-22T21:30:26.437Z,3.20
2019-04-22T21:32:29.450Z,3.23
2019-04-22T21:34:41.397Z,3.37
2019-04-22T21:36:43.014Z,2.77
2019-04-22T21:38:43.680Z,2.67
2019-04-22T21:40:47.387Z,2.97
2019-04-22T21:42:59.840Z,3.37
2019-04-22T21:44:55.747Z,2.63
2019-04-22T21:47:14.530Z,3.07
2019-04-22T21:49:21.648Z,3.00
2019-04-22T21:51:25.675Z,2.93
2019-04-22T21:53:31.494Z,2.87
2019-04-22T21:55:37.844Z,3.13
2019-04-22T21:57:44.106Z,3.00
2019-04-22T21:59:47.342Z,2.50
2019-04-22T22:01:56.734Z,2.90
2019-04-22T22:04:03.438Z,2.90
2019-04-22T22:05:58.706Z,3.10
2019-04-22T22:07:58.726Z,3.03
2019-04-22T22:10:16.549Z,2.83
2019-04-22T22:12:18.226Z,2.77
2019-04-22T22:14:27.943Z,3.30
2019-04-22T22:16:29.165Z,3.53
2019-04-22T22:18:32.115Z,2.67
2019-04-22T22:21:10.345Z,2.77
2019-04-22T22:22:53.621Z,3.47
2019-04-22T22:24:58.347Z,2.73
2019-04-22T22:27:03.378Z,2.97
2019-04-22T22:29:10.482Z,3.00
2019-04-22T22:31:15.499Z,3.17
2019-04-22T22:33:17.551Z,2.70
2019-04-22T22:35:20.729Z,3.07
2019-04-22T22:37:16.946Z,2.70
2019-04-22T22:39:23.191Z,2.93
2019-04-22T22:41:18.354Z,2.77
2019-04-22T22:43:29.697Z,3.30
2019-04-22T22:45:37.117Z,2.83
2019-04-22T22:47:55.798Z,2.87
2019-04-22T22:49:59.608Z,3.30
2019-04-22T22:52:31.076Z,3.23
2019-04-22T22:54:12.013Z,2.60
2019-04-22T22:56:15.986Z,2.87
2019-04-22T22:58:22.203Z,3.07
2019-04-22T23:00:26.060Z,3.63
2019-04-22T23:02:36.330Z,3.43
2019-04-22T23:04:45.942Z,3.30
2019-04-22T23:06:49.985Z,3.67
2019-04-22T23:08:55.828Z,3.60
2019-04-22T23:11:07.773Z,3.40
2019-04-22T23:13:11.537Z,3.50
2019-04-22T23:15:04.786Z,3.60
2019-04-22T23:16:59.722Z,3.50
2019-04-22T23:19:01.987Z,3.20
2019-04-22T23:21:08.350Z,3.00
2019-04-22T23:23:36.450Z,3.00
2019-04-22T23:25:50.238Z,3.60
2019-04-22T23:27:55.309Z,3.10
2019-04-22T23:30:12.875Z,2.77
2019-04-22T23:32:21.127Z,3.63
2019-04-22T23:34:26.649Z,3.83
2019-04-22T23:36:47.573Z,3.47
2019-04-22T23:39:02.369Z,3.40
2019-04-22T23:40:57.108Z,3.77
2019-04-22T23:43:09.429Z,3.00
2019-04-22T23:45:12.317Z,3.70
2019-04-22T23:47:10.898Z,3.70
2019-04-22T23:49:20.377Z,4.00
2019-04-22T23:51:25.088Z,3.50
2019-04-22T23:55:46.384Z,3.40
2019-04-22T23:57:46.993Z,3.60
2019-04-22T23:59:55.345Z,3.40
